Cody, WY (82414)

9:20 PM MST on February 19, 2017 (GMT -0700)
Valley View | | Change Station
Active Advisory: High Wind Warning

Elev 5166 ft 44.51 °N, 109.10 °W | Updated 13 minutes ago

Scattered Clouds
Scattered Clouds
40.0 °F
Feels Like 29 °F
N
26.0
Wind Variable Wind from West
Gusts 40.0 mph

Today
High -- | Low -- °F
--% Chance of Precip.
Yesterday
High -- | Low -- °F
Precip. -- in
Pressure 29.73 in
Visibility 10.0 miles
Clouds Scattered Clouds 11000 ft
Windchill 29 °F
Dew Point 19 °F
Humidity 43%
Rainfall 0.00 in
Snow Depth Not available.
7:09 AM 5:51 PM
Last Quarter, 37% visible
METAR KCOD 200356Z AUTO 20009KT 10SM SCT110 03/M02 A2971 RMK AO2 PK WND 26033/0318 SLP067 T00281022
Pressure 29.73 in
Visibility 10.0 miles
Clouds Scattered Clouds 11000 ft
Windchill 29 °F
Dew Point 19 °F
Humidity 43%
Rainfall 0.00 in
Snow Depth Not available.
7:09 AM 5:51 PM
Last Quarter, 37% visible
METAR KCOD 200356Z AUTO 20009KT 10SM SCT110 03/M02 A2971 RMK AO2 PK WND 26033/0318 SLP067 T00281022

Get Your Daily Forecast Email!

Thanks for signing up!

Be on the lookout for a verification email in your inbox.

You'll start receiving the daily forecast at 8 AM.

×

10-Day Weather Forecast

Almanac

Astronomy

Feb. 19, 2017 Rise Set
Actual Time
Civil Twilight
Nautical Twilight
Astronomical Twilight
Moon
Length of Visible Light
Length of Day
Tomorrow will be .
, % of the Moon is Illuminated

Today's Extremes

State Highs State Lows

Community

WunderPhotos

Upload Photos

1,962,540 photos uploaded!

WunderBlog® & News

Nearby

Air Quality

  Air Quality AQ Index Pollutant
Not available.

Snow Depth

Station Depth Elevation

Earthquake Activity

City Distance Mag. Time & Date
Minimum magnitude displayed is 2.5.

Coastal Water Temperatures

Place Temperature

Stations

Nearby Weather Stations

Station Location Temp. Windchill Dew Point Humidity Wind Precip. Elev Updated Type
                   

Watches & Warnings

High Wind Warning
Issued: 2:10 PM MST Feb. 19, 2017 – National Weather Service

... High Wind Warning in effect from 6 PM this evening to 5 PM MST
Monday...

The National Weather Service in Riverton has issued a High Wind
Warning, which is in effect from 6 PM this evening to 5 PM MST
Monday.

* Timing... high winds are expected to develop around 6 PM MST this
evening continuing through Monday afternoon.

* Winds... west wind 35 to 45 mph gusting to 65 mph, locally higher
up to 80 mph around Clark.

* Impacts... strong cross winds will produce an extreme blow over
threat for trucks pulling light weight and high profile
trailers on Highway 120 and chief Joseph Highway.

Precautionary/preparedness actions...

A High Wind Warning means a hazardous high wind event is expected
or occurring. Sustained wind speeds of at least 40 mph or gusts
of 58 mph or more can lead to property damage.